sensor_id;sensor_type;location;lat;lon;timestamp;temperature;humidity
73780;SHT30;62093;37.614;15.072;2022-11-06T00:00:44;19.62;59.49
73780;SHT30;62093;37.614;15.072;2022-11-06T00:03:10;19.62;59.32
73780;SHT30;62093;37.614;15.072;2022-11-06T00:05:40;19.63;59.30
73780;SHT30;62093;37.614;15.072;2022-11-06T00:08:31;19.57;59.25
73780;SHT30;62093;37.614;15.072;2022-11-06T00:10:57;19.66;59.23
73780;SHT30;62093;37.614;15.072;2022-11-06T00:13:24;19.62;59.13
73780;SHT30;62093;37.614;15.072;2022-11-06T00:15:49;19.60;59.17
73780;SHT30;62093;37.614;15.072;2022-11-06T00:18:15;19.62;59.38
73780;SHT30;62093;37.614;15.072;2022-11-06T00:20:41;19.63;59.25
73780;SHT30;62093;37.614;15.072;2022-11-06T00:23:07;19.59;59.57
73780;SHT30;62093;37.614;15.072;2022-11-06T00:25:33;19.56;59.30
73780;SHT30;62093;37.614;15.072;2022-11-06T00:27:59;19.57;59.26
73780;SHT30;62093;37.614;15.072;2022-11-06T00:30:25;19.64;59.29
73780;SHT30;62093;37.614;15.072;2022-11-06T00:32:51;19.64;59.23
73780;SHT30;62093;37.614;15.072;2022-11-06T00:35:16;19.62;59.48
73780;SHT30;62093;37.614;15.072;2022-11-06T00:37:42;19.57;59.48
73780;SHT30;62093;37.614;15.072;2022-11-06T00:40:08;19.53;59.23
73780;SHT30;62093;37.614;15.072;2022-11-06T00:42:34;19.57;59.13
73780;SHT30;62093;37.614;15.072;2022-11-06T00:45:00;19.59;59.33
73780;SHT30;62093;37.614;15.072;2022-11-06T00:47:26;19.62;59.05
73780;SHT30;62093;37.614;15.072;2022-11-06T00:49:52;19.63;59.17
73780;SHT30;62093;37.614;15.072;2022-11-06T00:52:18;19.60;59.33
73780;SHT30;62093;37.614;15.072;2022-11-06T00:54:44;19.56;59.18
73780;SHT30;62093;37.614;15.072;2022-11-06T00:57:10;19.56;59.15
73780;SHT30;62093;37.614;15.072;2022-11-06T00:59:35;19.54;59.37
73780;SHT30;62093;37.614;15.072;2022-11-06T01:02:01;19.57;59.42
73780;SHT30;62093;37.614;15.072;2022-11-06T01:04:27;19.59;59.04
73780;SHT30;62093;37.614;15.072;2022-11-06T01:06:54;19.57;59.18
73780;SHT30;62093;37.614;15.072;2022-11-06T01:09:23;19.62;59.26
73780;SHT30;62093;37.614;15.072;2022-11-06T01:11:52;19.59;59.46
73780;SHT30;62093;37.614;15.072;2022-11-06T01:14:19;19.60;59.31
73780;SHT30;62093;37.614;15.072;2022-11-06T01:16:46;19.57;59.04
73780;SHT30;62093;37.614;15.072;2022-11-06T01:19:14;19.62;59.27
73780;SHT30;62093;37.614;15.072;2022-11-06T01:21:43;19.64;58.89
73780;SHT30;62093;37.614;15.072;2022-11-06T01:24:12;19.56;59.30
73780;SHT30;62093;37.614;15.072;2022-11-06T01:26:38;19.57;59.37
73780;SHT30;62093;37.614;15.072;2022-11-06T01:29:07;19.60;59.42
73780;SHT30;62093;37.614;15.072;2022-11-06T01:31:33;19.59;59.50
73780;SHT30;62093;37.614;15.072;2022-11-06T01:34:00;19.66;59.13
73780;SHT30;62093;37.614;15.072;2022-11-06T01:36:27;19.59;58.97
73780;SHT30;62093;37.614;15.072;2022-11-06T01:38:56;19.66;59.16
73780;SHT30;62093;37.614;15.072;2022-11-06T01:41:26;19.60;59.36
73780;SHT30;62093;37.614;15.072;2022-11-06T01:46:25;19.60;59.51
73780;SHT30;62093;37.614;15.072;2022-11-06T01:49:04;19.56;59.45
73780;SHT30;62093;37.614;15.072;2022-11-06T01:51:35;19.66;59.02
73780;SHT30;62093;37.614;15.072;2022-11-06T01:54:03;19.71;59.26
73780;SHT30;62093;37.614;15.072;2022-11-06T01:56:30;19.54;59.31
73780;SHT30;62093;37.614;15.072;2022-11-06T01:58:56;19.60;59.24
73780;SHT30;62093;37.614;15.072;2022-11-06T02:01:22;19.59;59.50
73780;SHT30;62093;37.614;15.072;2022-11-06T02:04:10;19.57;59.32
73780;SHT30;62093;37.614;15.072;2022-11-06T02:06:38;19.64;59.27
73780;SHT30;62093;37.614;15.072;2022-11-06T02:09:04;19.63;58.95
73780;SHT30;62093;37.614;15.072;2022-11-06T02:11:49;19.60;59.19
73780;SHT30;62093;37.614;15.072;2022-11-06T02:16:50;19.59;59.20
73780;SHT30;62093;37.614;15.072;2022-11-06T02:27:34;19.53;59.05
73780;SHT30;62093;37.614;15.072;2022-11-06T02:30:06;19.56;59.08
73780;SHT30;62093;37.614;15.072;2022-11-06T02:35:18;19.52;59.61
73780;SHT30;62093;37.614;15.072;2022-11-06T02:37:46;19.49;59.47
73780;SHT30;62093;37.614;15.072;2022-11-06T02:40:14;19.45;59.48
73780;SHT30;62093;37.614;15.072;2022-11-06T02:42:45;19.50;59.59
73780;SHT30;62093;37.614;15.072;2022-11-06T02:45:15;19.57;59.33
73780;SHT30;62093;37.614;15.072;2022-11-06T02:47:43;19.54;59.09
73780;SHT30;62093;37.614;15.072;2022-11-06T02:50:16;19.52;59.45
73780;SHT30;62093;37.614;15.072;2022-11-06T02:52:50;19.46;59.07
73780;SHT30;62093;37.614;15.072;2022-11-06T02:55:33;19.53;59.27
73780;SHT30;62093;37.614;15.072;2022-11-06T02:58:05;19.53;58.92
73780;SHT30;62093;37.614;15.072;2022-11-06T03:00:34;19.52;58.99
73780;SHT30;62093;37.614;15.072;2022-11-06T03:03:12;19.45;59.55
73780;SHT30;62093;37.614;15.072;2022-11-06T03:06:10;19.42;59.61
73780;SHT30;62093;37.614;15.072;2022-11-06T03:08:49;19.45;59.61
73780;SHT30;62093;37.614;15.072;2022-11-06T03:11:22;19.46;59.46
73780;SHT30;62093;37.614;15.072;2022-11-06T03:13:57;19.45;59.51
73780;SHT30;62093;37.614;15.072;2022-11-06T03:19:01;19.47;59.26
73780;SHT30;62093;37.614;15.072;2022-11-06T03:24:11;19.47;59.22
73780;SHT30;62093;37.614;15.072;2022-11-06T03:26:46;19.47;59.17
73780;SHT30;62093;37.614;15.072;2022-11-06T03:29:17;19.43;59.07
73780;SHT30;62093;37.614;15.072;2022-11-06T03:31:55;19.49;59.18
73780;SHT30;62093;37.614;15.072;2022-11-06T03:34:35;19.46;58.95
73780;SHT30;62093;37.614;15.072;2022-11-06T03:37:09;19.43;58.98
73780;SHT30;62093;37.614;15.072;2022-11-06T03:39:42;19.46;59.07
73780;SHT30;62093;37.614;15.072;2022-11-06T03:42:14;19.49;58.60
73780;SHT30;62093;37.614;15.072;2022-11-06T03:44:45;19.42;59.01
73780;SHT30;62093;37.614;15.072;2022-11-06T03:49:53;19.43;59.02
73780;SHT30;62093;37.614;15.072;2022-11-06T03:52:29;19.40;58.95
73780;SHT30;62093;37.614;15.072;2022-11-06T03:55:09;19.46;59.39
73780;SHT30;62093;37.614;15.072;2022-11-06T04:00:08;19.36;59.47
73780;SHT30;62093;37.614;15.072;2022-11-06T04:02:44;19.37;59.43
73780;SHT30;62093;37.614;15.072;2022-11-06T04:05:20;19.39;59.57
73780;SHT30;62093;37.614;15.072;2022-11-06T04:07:50;19.33;59.59
73780;SHT30;62093;37.614;15.072;2022-11-06T04:10:37;19.33;59.64
73780;SHT30;62093;37.614;15.072;2022-11-06T04:13:24;19.36;59.46
73780;SHT30;62093;37.614;15.072;2022-11-06T04:16:10;19.45;59.47
73780;SHT30;62093;37.614;15.072;2022-11-06T04:18:36;19.46;59.36
73780;SHT30;62093;37.614;15.072;2022-11-06T04:21:11;19.40;59.54
73780;SHT30;62093;37.614;15.072;2022-11-06T04:42:57;19.42;59.15
73780;SHT30;62093;37.614;15.072;2022-11-06T04:45:33;19.42;59.32
73780;SHT30;62093;37.614;15.072;2022-11-06T04:48:01;19.42;59.06
73780;SHT30;62093;37.614;15.072;2022-11-06T04:50:31;19.49;59.26
73780;SHT30;62093;37.614;15.072;2022-11-06T04:52:59;19.43;59.32
73780;SHT30;62093;37.614;15.072;2022-11-06T04:55:28;19.50;59.05
73780;SHT30;62093;37.614;15.072;2022-11-06T04:57:54;19.47;59.09
73780;SHT30;62093;37.614;15.072;2022-11-06T05:00:20;19.47;59.29
73780;SHT30;62093;37.614;15.072;2022-11-06T05:02:46;19.46;59.46
73780;SHT30;62093;37.614;15.072;2022-11-06T05:05:12;19.46;59.25
73780;SHT30;62093;37.614;15.072;2022-11-06T05:07:38;19.46;59.46
73780;SHT30;62093;37.614;15.072;2022-11-06T05:10:04;19.50;59.41
73780;SHT30;62093;37.614;15.072;2022-11-06T05:12:30;19.47;59.47
73780;SHT30;62093;37.614;15.072;2022-11-06T05:14:56;19.43;59.47
73780;SHT30;62093;37.614;15.072;2022-11-06T05:17:21;19.46;59.53
73780;SHT30;62093;37.614;15.072;2022-11-06T05:19:47;19.43;59.30
73780;SHT30;62093;37.614;15.072;2022-11-06T05:22:13;19.45;59.02
73780;SHT30;62093;37.614;15.072;2022-11-06T05:24:57;19.47;59.12
73780;SHT30;62093;37.614;15.072;2022-11-06T05:27:23;19.45;59.26
73780;SHT30;62093;37.614;15.072;2022-11-06T05:29:49;19.42;59.20
73780;SHT30;62093;37.614;15.072;2022-11-06T05:32:15;19.47;59.19
73780;SHT30;62093;37.614;15.072;2022-11-06T05:34:40;19.49;59.45
73780;SHT30;62093;37.614;15.072;2022-11-06T05:37:06;19.40;59.46
73780;SHT30;62093;37.614;15.072;2022-11-06T05:39:32;19.42;59.55
73780;SHT30;62093;37.614;15.072;2022-11-06T05:41:58;19.39;59.28
73780;SHT30;62093;37.614;15.072;2022-11-06T05:44:24;19.42;59.57
73780;SHT30;62093;37.614;15.072;2022-11-06T05:46:50;19.35;59.58
73780;SHT30;62093;37.614;15.072;2022-11-06T05:49:17;19.43;59.50
73780;SHT30;62093;37.614;15.072;2022-11-06T05:51:43;19.45;59.30
73780;SHT30;62093;37.614;15.072;2022-11-06T05:54:09;19.40;59.46
73780;SHT30;62093;37.614;15.072;2022-11-06T05:56:34;19.45;59.13
73780;SHT30;62093;37.614;15.072;2022-11-06T05:59:00;19.37;59.56
73780;SHT30;62093;37.614;15.072;2022-11-06T06:01:26;19.37;59.45
73780;SHT30;62093;37.614;15.072;2022-11-06T06:03:52;19.43;59.40
73780;SHT30;62093;37.614;15.072;2022-11-06T06:06:18;19.42;59.30
73780;SHT30;62093;37.614;15.072;2022-11-06T06:08:46;19.36;59.44
73780;SHT30;62093;37.614;15.072;2022-11-06T06:11:12;19.35;59.65
73780;SHT30;62093;37.614;15.072;2022-11-06T06:13:38;19.43;59.56
73780;SHT30;62093;37.614;15.072;2022-11-06T06:16:04;19.43;59.48
73780;SHT30;62093;37.614;15.072;2022-11-06T06:18:29;19.37;59.29
73780;SHT30;62093;37.614;15.072;2022-11-06T06:20:58;19.42;59.35
73780;SHT30;62093;37.614;15.072;2022-11-06T06:23:25;19.43;59.49
73780;SHT30;62093;37.614;15.072;2022-11-06T06:25:55;19.42;59.33
73780;SHT30;62093;37.614;15.072;2022-11-06T06:28:21;19.45;59.37
73780;SHT30;62093;37.614;15.072;2022-11-06T06:30:47;19.47;59.40
73780;SHT30;62093;37.614;15.072;2022-11-06T06:33:13;19.45;59.40
73780;SHT30;62093;37.614;15.072;2022-11-06T06:35:38;19.40;59.37
73780;SHT30;62093;37.614;15.072;2022-11-06T06:38:04;19.43;59.39
73780;SHT30;62093;37.614;15.072;2022-11-06T06:40:30;19.46;59.48
73780;SHT30;62093;37.614;15.072;2022-11-06T06:42:57;19.46;59.23
73780;SHT30;62093;37.614;15.072;2022-11-06T06:45:25;19.43;59.27
73780;SHT30;62093;37.614;15.072;2022-11-06T06:48:06;19.40;59.46
73780;SHT30;62093;37.614;15.072;2022-11-06T06:50:34;19.40;59.22
73780;SHT30;62093;37.614;15.072;2022-11-06T06:53:07;19.45;59.38
73780;SHT30;62093;37.614;15.072;2022-11-06T06:55:45;19.46;59.14
73780;SHT30;62093;37.614;15.072;2022-11-06T06:58:17;19.45;59.26
73780;SHT30;62093;37.614;15.072;2022-11-06T07:01:13;19.45;59.25
73780;SHT30;62093;37.614;15.072;2022-11-06T07:03:45;19.46;59.29
73780;SHT30;62093;37.614;15.072;2022-11-06T07:06:12;19.40;59.14
73780;SHT30;62093;37.614;15.072;2022-11-06T07:08:38;19.49;59.09
73780;SHT30;62093;37.614;15.072;2022-11-06T07:11:06;19.52;58.92
73780;SHT30;62093;37.614;15.072;2022-11-06T07:13:34;19.52;59.26
73780;SHT30;62093;37.614;15.072;2022-11-06T07:16:04;19.50;59.29
73780;SHT30;62093;37.614;15.072;2022-11-06T07:18:31;19.45;59.00
73780;SHT30;62093;37.614;15.072;2022-11-06T07:20:57;19.42;59.20
73780;SHT30;62093;37.614;15.072;2022-11-06T07:23:24;19.52;59.02
73780;SHT30;62093;37.614;15.072;2022-11-06T07:25:53;19.53;58.95
73780;SHT30;62093;37.614;15.072;2022-11-06T07:28:20;19.49;59.18
73780;SHT30;62093;37.614;15.072;2022-11-06T07:30:46;19.50;59.30
73780;SHT30;62093;37.614;15.072;2022-11-06T07:33:12;19.52;59.04
73780;SHT30;62093;37.614;15.072;2022-11-06T07:35:37;19.53;59.14
73780;SHT30;62093;37.614;15.072;2022-11-06T07:38:04;19.57;59.15
73780;SHT30;62093;37.614;15.072;2022-11-06T07:40:35;19.57;57.69
73780;SHT30;62093;37.614;15.072;2022-11-06T07:43:08;19.47;56.32
73780;SHT30;62093;37.614;15.072;2022-11-06T07:45:34;19.36;55.66
73780;SHT30;62093;37.614;15.072;2022-11-06T07:48:01;19.23;55.55
73780;SHT30;62093;37.614;15.072;2022-11-06T07:50:27;19.18;55.12
73780;SHT30;62093;37.614;15.072;2022-11-06T07:52:52;19.20;54.94
73780;SHT30;62093;37.614;15.072;2022-11-06T07:55:19;19.19;54.53
73780;SHT30;62093;37.614;15.072;2022-11-06T07:57:45;19.18;54.06
73780;SHT30;62093;37.614;15.072;2022-11-06T08:00:12;19.08;53.64
73780;SHT30;62093;37.614;15.072;2022-11-06T08:02:42;19.05;53.35
73780;SHT30;62093;37.614;15.072;2022-11-06T08:05:08;19.08;53.77
73780;SHT30;62093;37.614;15.072;2022-11-06T08:07:34;19.05;52.93
73780;SHT30;62093;37.614;15.072;2022-11-06T08:09:59;19.05;53.14
73780;SHT30;62093;37.614;15.072;2022-11-06T08:12:25;19.09;53.67
73780;SHT30;62093;37.614;15.072;2022-11-06T08:14:51;19.04;53.69
73780;SHT30;62093;37.614;15.072;2022-11-06T08:17:17;19.01;53.60
73780;SHT30;62093;37.614;15.072;2022-11-06T08:19:42;19.02;53.87
73780;SHT30;62093;37.614;15.072;2022-11-06T08:22:08;18.99;53.69
73780;SHT30;62093;37.614;15.072;2022-11-06T08:24:34;18.95;53.69
73780;SHT30;62093;37.614;15.072;2022-11-06T08:27:00;18.99;53.91
73780;SHT30;62093;37.614;15.072;2022-11-06T08:29:27;18.95;53.99
73780;SHT30;62093;37.614;15.072;2022-11-06T08:31:53;18.96;53.76
73780;SHT30;62093;37.614;15.072;2022-11-06T08:34:19;19.01;53.55
73780;SHT30;62093;37.614;15.072;2022-11-06T08:36:46;18.94;52.65
73780;SHT30;62093;37.614;15.072;2022-11-06T08:39:14;18.87;53.27
73780;SHT30;62093;37.614;15.072;2022-11-06T08:41:40;18.81;53.44
73780;SHT30;62093;37.614;15.072;2022-11-06T08:44:07;18.89;53.03
73780;SHT30;62093;37.614;15.072;2022-11-06T08:46:32;18.91;53.21
73780;SHT30;62093;37.614;15.072;2022-11-06T08:48:58;18.88;53.19
73780;SHT30;62093;37.614;15.072;2022-11-06T08:51:24;18.89;53.14
73780;SHT30;62093;37.614;15.072;2022-11-06T08:53:50;18.92;52.94
73780;SHT30;62093;37.614;15.072;2022-11-06T08:56:16;18.94;52.69
73780;SHT30;62093;37.614;15.072;2022-11-06T08:58:42;18.91;53.14
73780;SHT30;62093;37.614;15.072;2022-11-06T09:01:08;18.95;53.05
73780;SHT30;62093;37.614;15.072;2022-11-06T09:03:34;18.96;53.23
73780;SHT30;62093;37.614;15.072;2022-11-06T09:05:59;18.96;52.87
73780;SHT30;62093;37.614;15.072;2022-11-06T09:08:25;18.99;52.96
73780;SHT30;62093;37.614;15.072;2022-11-06T09:10:51;18.99;53.08
73780;SHT30;62093;37.614;15.072;2022-11-06T09:13:17;18.94;53.41
73780;SHT30;62093;37.614;15.072;2022-11-06T09:15:43;18.95;53.42
73780;SHT30;62093;37.614;15.072;2022-11-06T09:18:10;18.96;53.30
73780;SHT30;62093;37.614;15.072;2022-11-06T09:20:36;18.94;52.86
73780;SHT30;62093;37.614;15.072;2022-11-06T09:23:04;18.96;53.37
73780;SHT30;62093;37.614;15.072;2022-11-06T09:25:30;18.96;53.52
73780;SHT30;62093;37.614;15.072;2022-11-06T09:27:56;18.99;53.27
73780;SHT30;62093;37.614;15.072;2022-11-06T09:30:23;18.99;53.37
73780;SHT30;62093;37.614;15.072;2022-11-06T09:32:55;18.95;53.44
73780;SHT30;62093;37.614;15.072;2022-11-06T09:35:22;18.96;53.12
73780;SHT30;62093;37.614;15.072;2022-11-06T09:37:49;18.96;53.37
73780;SHT30;62093;37.614;15.072;2022-11-06T09:43:30;19.06;53.57
73780;SHT30;62093;37.614;15.072;2022-11-06T09:46:05;19.20;53.54
73780;SHT30;62093;37.614;15.072;2022-11-06T09:48:37;19.20;53.17
73780;SHT30;62093;37.614;15.072;2022-11-06T09:51:25;19.11;53.51
73780;SHT30;62093;37.614;15.072;2022-11-06T09:56:39;19.25;53.38
73780;SHT30;62093;37.614;15.072;2022-11-06T09:59:10;19.26;53.41
73780;SHT30;62093;37.614;15.072;2022-11-06T10:01:54;19.16;53.47
73780;SHT30;62093;37.614;15.072;2022-11-06T10:04:30;19.15;53.37
73780;SHT30;62093;37.614;15.072;2022-11-06T10:07:00;19.25;53.58
73780;SHT30;62093;37.614;15.072;2022-11-06T10:09:27;19.32;53.65
73780;SHT30;62093;37.614;15.072;2022-11-06T10:12:13;19.32;53.48
73780;SHT30;62093;37.614;15.072;2022-11-06T10:15:21;19.33;53.41
73780;SHT30;62093;37.614;15.072;2022-11-06T10:17:56;19.19;53.05
73780;SHT30;62093;37.614;15.072;2022-11-06T10:23:48;19.32;53.37
73780;SHT30;62093;37.614;15.072;2022-11-06T10:26:18;19.26;53.62
73780;SHT30;62093;37.614;15.072;2022-11-06T10:34:39;19.37;53.39
73780;SHT30;62093;37.614;15.072;2022-11-06T10:37:18;19.36;53.61
73780;SHT30;62093;37.614;15.072;2022-11-06T10:39:47;19.32;53.50
73780;SHT30;62093;37.614;15.072;2022-11-06T10:42:21;19.33;53.54
73780;SHT30;62093;37.614;15.072;2022-11-06T10:44:51;19.30;53.15
73780;SHT30;62093;37.614;15.072;2022-11-06T10:47:20;19.35;53.83
73780;SHT30;62093;37.614;15.072;2022-11-06T11:00:14;19.33;53.60
73780;SHT30;62093;37.614;15.072;2022-11-06T11:02:47;19.39;54.08
73780;SHT30;62093;37.614;15.072;2022-11-06T11:05:18;19.39;53.62
73780;SHT30;62093;37.614;15.072;2022-11-06T11:07:47;19.40;53.57
73780;SHT30;62093;37.614;15.072;2022-11-06T11:12:53;19.52;53.76
73780;SHT30;62093;37.614;15.072;2022-11-06T11:15:24;19.49;53.78
73780;SHT30;62093;37.614;15.072;2022-11-06T11:20:42;19.45;53.08
73780;SHT30;62093;37.614;15.072;2022-11-06T11:23:22;19.46;53.61
73780;SHT30;62093;37.614;15.072;2022-11-06T11:25:54;19.57;53.80
73780;SHT30;62093;37.614;15.072;2022-11-06T11:28:35;19.67;53.66
73780;SHT30;62093;37.614;15.072;2022-11-06T11:31:09;19.71;53.75
73780;SHT30;62093;37.614;15.072;2022-11-06T11:33:38;19.78;53.65
73780;SHT30;62093;37.614;15.072;2022-11-06T11:36:05;19.80;53.20
73780;SHT30;62093;37.614;15.072;2022-11-06T11:38:35;19.86;53.40
73780;SHT30;62093;37.614;15.072;2022-11-06T11:46:53;19.97;52.80
73780;SHT30;62093;37.614;15.072;2022-11-06T11:49:35;20.05;52.14
73780;SHT30;62093;37.614;15.072;2022-11-06T11:52:03;19.86;52.81
73780;SHT30;62093;37.614;15.072;2022-11-06T11:54:33;19.83;53.32
73780;SHT30;62093;37.614;15.072;2022-11-06T11:57:00;19.84;53.55
73780;SHT30;62093;37.614;15.072;2022-11-06T11:59:40;19.83;53.34
73780;SHT30;62093;37.614;15.072;2022-11-06T12:05:05;19.63;53.91
73780;SHT30;62093;37.614;15.072;2022-11-06T12:07:35;19.67;54.12
73780;SHT30;62093;37.614;15.072;2022-11-06T12:10:25;19.66;54.19
73780;SHT30;62093;37.614;15.072;2022-11-06T12:12:52;19.64;54.17
73780;SHT30;62093;37.614;15.072;2022-11-06T12:15:20;19.64;54.17
73780;SHT30;62093;37.614;15.072;2022-11-06T12:17:53;19.63;54.18
73780;SHT30;62093;37.614;15.072;2022-11-06T12:20:26;19.64;54.21
73780;SHT30;62093;37.614;15.072;2022-11-06T12:22:55;19.64;54.24
73780;SHT30;62093;37.614;15.072;2022-11-06T12:25:29;19.64;54.26
73780;SHT30;62093;37.614;15.072;2022-11-06T12:27:59;19.64;54.26
73780;SHT30;62093;37.614;15.072;2022-11-06T12:30:26;19.67;54.20
73780;SHT30;62093;37.614;15.072;2022-11-06T12:35:42;19.63;54.29
73780;SHT30;62093;37.614;15.072;2022-11-06T12:38:37;19.67;54.31
73780;SHT30;62093;37.614;15.072;2022-11-06T12:41:28;19.67;54.31
73780;SHT30;62093;37.614;15.072;2022-11-06T12:43:54;19.66;54.33
73780;SHT30;62093;37.614;15.072;2022-11-06T13:00:08;19.70;54.47
73780;SHT30;62093;37.614;15.072;2022-11-06T13:14:11;19.71;54.53
73780;SHT30;62093;37.614;15.072;2022-11-06T13:16:57;19.71;54.51
73780;SHT30;62093;37.614;15.072;2022-11-06T13:22:41;19.73;54.60
73780;SHT30;62093;37.614;15.072;2022-11-06T13:25:18;19.73;54.62
73780;SHT30;62093;37.614;15.072;2022-11-06T13:28:02;19.76;54.59
73780;SHT30;62093;37.614;15.072;2022-11-06T13:30:31;19.76;54.66
73780;SHT30;62093;37.614;15.072;2022-11-06T13:35:27;19.76;54.69
73780;SHT30;62093;37.614;15.072;2022-11-06T13:37:55;19.74;54.73
73780;SHT30;62093;37.614;15.072;2022-11-06T13:40:30;19.77;54.73
73780;SHT30;62093;37.614;15.072;2022-11-06T13:48:59;19.78;54.74
73780;SHT30;62093;37.614;15.072;2022-11-06T13:51:41;19.80;54.86
73780;SHT30;62093;37.614;15.072;2022-11-06T13:57:50;19.78;54.87
73780;SHT30;62093;37.614;15.072;2022-11-06T14:06:00;19.81;54.92
73780;SHT30;62093;37.614;15.072;2022-11-06T14:11:00;19.80;55.01
73780;SHT30;62093;37.614;15.072;2022-11-06T14:13:31;19.83;54.97
73780;SHT30;62093;37.614;15.072;2022-11-06T14:16:00;19.84;55.02
73780;SHT30;62093;37.614;15.072;2022-11-06T14:18:26;19.83;55.11
73780;SHT30;62093;37.614;15.072;2022-11-06T14:24:06;19.83;55.23
73780;SHT30;62093;37.614;15.072;2022-11-06T14:26:42;19.83;55.28
73780;SHT30;62093;37.614;15.072;2022-11-06T14:34:46;19.81;55.37
73780;SHT30;62093;37.614;15.072;2022-11-06T14:37:43;19.84;55.41
73780;SHT30;62093;37.614;15.072;2022-11-06T14:40:11;19.84;55.42
73780;SHT30;62093;37.614;15.072;2022-11-06T14:42:42;19.87;55.41
73780;SHT30;62093;37.614;15.072;2022-11-06T14:45:17;19.90;55.44
73780;SHT30;62093;37.614;15.072;2022-11-06T14:57:53;19.86;55.56
73780;SHT30;62093;37.614;15.072;2022-11-06T15:00:36;19.86;55.57
73780;SHT30;62093;37.614;15.072;2022-11-06T15:03:05;19.86;55.57
73780;SHT30;62093;37.614;15.072;2022-11-06T15:05:39;19.86;55.63
73780;SHT30;62093;37.614;15.072;2022-11-06T15:08:05;19.87;55.63
73780;SHT30;62093;37.614;15.072;2022-11-06T15:13:30;19.87;55.68
73780;SHT30;62093;37.614;15.072;2022-11-06T15:16:02;19.86;55.75
73780;SHT30;62093;37.614;15.072;2022-11-06T15:18:30;19.88;55.69
73780;SHT30;62093;37.614;15.072;2022-11-06T15:21:03;19.88;55.71
73780;SHT30;62093;37.614;15.072;2022-11-06T15:23:39;19.86;55.77
73780;SHT30;62093;37.614;15.072;2022-11-06T15:26:27;19.86;55.78
73780;SHT30;62093;37.614;15.072;2022-11-06T15:31:51;19.86;55.90
73780;SHT30;62093;37.614;15.072;2022-11-06T15:34:26;19.86;55.91
73780;SHT30;62093;37.614;15.072;2022-11-06T15:40:02;19.86;56.08
73780;SHT30;62093;37.614;15.072;2022-11-06T15:42:30;19.86;56.02
73780;SHT30;62093;37.614;15.072;2022-11-06T15:45:29;19.83;56.08
73780;SHT30;62093;37.614;15.072;2022-11-06T15:48:04;19.86;56.07
73780;SHT30;62093;37.614;15.072;2022-11-06T15:50:34;19.86;56.12
73780;SHT30;62093;37.614;15.072;2022-11-06T15:53:27;19.84;56.17
73780;SHT30;62093;37.614;15.072;2022-11-06T15:55:58;19.84;56.21
73780;SHT30;62093;37.614;15.072;2022-11-06T15:58:31;19.84;56.22
73780;SHT30;62093;37.614;15.072;2022-11-06T16:00:59;19.83;56.25
73780;SHT30;62093;37.614;15.072;2022-11-06T16:03:27;19.83;56.37
73780;SHT30;62093;37.614;15.072;2022-11-06T16:05:56;19.84;56.36
73780;SHT30;62093;37.614;15.072;2022-11-06T16:08:25;19.86;56.42
73780;SHT30;62093;37.614;15.072;2022-11-06T16:10:53;19.81;56.45
73780;SHT30;62093;37.614;15.072;2022-11-06T16:13:21;19.81;56.56
73780;SHT30;62093;37.614;15.072;2022-11-06T16:16:00;19.78;56.52
73780;SHT30;62093;37.614;15.072;2022-11-06T16:18:43;19.83;56.55
73780;SHT30;62093;37.614;15.072;2022-11-06T16:21:10;19.84;56.63
73780;SHT30;62093;37.614;15.072;2022-11-06T16:23:52;19.80;56.70
73780;SHT30;62093;37.614;15.072;2022-11-06T16:28:58;19.80;56.79
73780;SHT30;62093;37.614;15.072;2022-11-06T16:31:27;19.81;56.83
73780;SHT30;62093;37.614;15.072;2022-11-06T16:34:02;19.81;56.86
73780;SHT30;62093;37.614;15.072;2022-11-06T16:36:47;19.80;56.95
73780;SHT30;62093;37.614;15.072;2022-11-06T16:44:42;19.78;57.02
73780;SHT30;62093;37.614;15.072;2022-11-06T16:49:45;19.76;57.13
73780;SHT30;62093;37.614;15.072;2022-11-06T16:52:26;19.77;57.19
73780;SHT30;62093;37.614;15.072;2022-11-06T16:57:28;19.76;57.22
73780;SHT30;62093;37.614;15.072;2022-11-06T16:59:59;19.80;57.24
73780;SHT30;62093;37.614;15.072;2022-11-06T17:02:28;19.78;57.30
73780;SHT30;62093;37.614;15.072;2022-11-06T17:05:27;19.76;57.35
73780;SHT30;62093;37.614;15.072;2022-11-06T17:10:52;19.76;57.45
73780;SHT30;62093;37.614;15.072;2022-11-06T17:15:53;19.77;57.36
73780;SHT30;62093;37.614;15.072;2022-11-06T17:18:29;19.77;57.31
73780;SHT30;62093;37.614;15.072;2022-11-06T17:21:03;19.76;57.37
73780;SHT30;62093;37.614;15.072;2022-11-06T17:23:30;19.81;57.26
73780;SHT30;62093;37.614;15.072;2022-11-06T17:28:41;19.83;57.21
73780;SHT30;62093;37.614;15.072;2022-11-06T17:31:11;19.78;57.53
73780;SHT30;62093;37.614;15.072;2022-11-06T17:33:39;19.80;57.41
73780;SHT30;62093;37.614;15.072;2022-11-06T17:36:06;19.77;57.62
73780;SHT30;62093;37.614;15.072;2022-11-06T17:38:32;19.77;57.74
73780;SHT30;62093;37.614;15.072;2022-11-06T17:40:58;19.80;57.74
73780;SHT30;62093;37.614;15.072;2022-11-06T17:43:24;19.80;57.83
73780;SHT30;62093;37.614;15.072;2022-11-06T17:45:50;19.74;57.85
73780;SHT30;62093;37.614;15.072;2022-11-06T17:48:16;19.76;57.95
73780;SHT30;62093;37.614;15.072;2022-11-06T17:50:42;19.77;57.90
73780;SHT30;62093;37.614;15.072;2022-11-06T17:53:27;19.76;58.04
73780;SHT30;62093;37.614;15.072;2022-11-06T17:55:52;19.76;58.03
73780;SHT30;62093;37.614;15.072;2022-11-06T17:58:18;19.74;58.00
73780;SHT30;62093;37.614;15.072;2022-11-06T18:00:44;19.74;58.05
73780;SHT30;62093;37.614;15.072;2022-11-06T18:03:17;19.76;58.11
73780;SHT30;62093;37.614;15.072;2022-11-06T18:05:44;19.74;58.05
73780;SHT30;62093;37.614;15.072;2022-11-06T18:08:11;19.73;58.16
73780;SHT30;62093;37.614;15.072;2022-11-06T18:10:37;19.73;58.16
73780;SHT30;62093;37.614;15.072;2022-11-06T18:13:04;19.74;58.16
73780;SHT30;62093;37.614;15.072;2022-11-06T18:15:34;19.73;58.10
73780;SHT30;62093;37.614;15.072;2022-11-06T18:18:00;19.73;58.26
73780;SHT30;62093;37.614;15.072;2022-11-06T18:20:26;19.76;58.26
73780;SHT30;62093;37.614;15.072;2022-11-06T18:22:51;19.78;58.28
73780;SHT30;62093;37.614;15.072;2022-11-06T18:25:17;19.76;58.34
73780;SHT30;62093;37.614;15.072;2022-11-06T18:27:43;19.77;58.28
73780;SHT30;62093;37.614;15.072;2022-11-06T18:30:09;19.76;58.41
73780;SHT30;62093;37.614;15.072;2022-11-06T18:32:35;19.77;58.39
73780;SHT30;62093;37.614;15.072;2022-11-06T18:35:01;19.78;58.45
73780;SHT30;62093;37.614;15.072;2022-11-06T18:37:27;19.77;58.49
73780;SHT30;62093;37.614;15.072;2022-11-06T18:39:53;19.77;58.45